Belvidere, NE (68315)

9:00 PM CDT on September 19, 2014 (GMT -0500)
Hebron Municipal | Change Station
CLOSE
Current Station
Airport
Location: Hebron,
Elevation: 1467 ft
Nearby Weather Stations

Elev 1467 ft 40.15 °N, 97.59 °W | Updated 5 minutes ago

Clear
Clear
75 °F
Feels Like 75 °F
N
6
Wind Variable Wind from South

Today
High -- | Low -- °F
--% Chance of Precip.
Yesterday
High -- | Low -- °F
Precip. -- in
7:14 AM 7:32 PM
Waning Crescent, 15% visible
Pressure 29.85 in
Visibility 10.0 miles
Clouds Clear
Dew Point 65 °F
Humidity 70%
Rainfall 0.00 in
Snow Depth Not available.
UV 0 out of 12
Pollen 6.80 out of 12
Air Quality Not available.
Flu Activity Not available.
METAR KHJH 200155Z AUTO 19005KT 10SM CLR 24/18 A2985 RMK AO2 T02380181

More Conditions Fewer Conditions

Pressure 29.85 in
Visibility 10.0 miles
Clouds Clear
Dew Point 65 °F
Humidity 70%
Rainfall 0.00 in
Snow Depth Not available.
UV 0 out of 12
Pollen 6.80 out of 12
Air Quality Not available.
Flu Activity Not available.
METAR KHJH 200155Z AUTO 19005KT 10SM CLR 24/18 A2985 RMK AO2 T02380181

More Conditions Fewer Conditions

10-Day Weather Forecast

Almanac

Astronomy

Sep. 19, 2014 Rise Set
Actual Time 7:14 AM CDT 7:32 PM CDT
Civil Twilight 6:47 AM CDT 7:59 PM CDT
Nautical Twilight 6:15 AM CDT 8:31 PM CDT
Astronomical Twilight 5:43 AM CDT 9:03 PM CDT
Moon 3:00 AM CDT (9/19) 5:02 PM CDT (9/19)
Length of Visible Light 13h 11m
Length of Day
12h 17m
Tomorrow will be 2m 38s shorter.
Waning Crescent, 15% of the Moon is Illuminated
Today
Waning Crescent
Sep 24
New
Oct 1
First Quarter
Oct 8
Full
Oct 15
Last Quarter

Today's Extremes

State Highs State Lows

Community

WunderPhotos

Upload Photos

1,754,761 photos uploaded!

WunderBlogs® & News

Nearby

Snow Depth

Station Depth Elevation
No new snow has been reported.

Earthquake Activity

City Distance Mag. Time & Date
No recent earthquake activity has been reported nearby.
Minimum magnitude displayed is 2.5.

Coastal Water Temperatures

Place Temperature
No Stations Reporting

Nearby Weather Stations